createdAt,value
2019-01-22T00:00:13.240Z,101268.77
2019-01-22T00:02:41.924Z,101261.91
2019-01-22T00:05:11.281Z,101257.83
2019-01-22T00:07:39.901Z,101251.36
2019-01-22T00:10:10.238Z,101236.69
2019-01-22T00:12:38.950Z,101241.61
2019-01-22T00:15:10.933Z,101239.98
2019-01-22T00:17:39.924Z,101236.36
2019-01-22T00:20:13.113Z,101234.00
2019-01-22T00:22:41.778Z,101232.19
2019-01-22T00:25:14.118Z,101234.41
2019-01-22T00:27:42.847Z,101236.30
2019-01-22T00:30:20.166Z,101226.93
2019-01-22T00:32:48.767Z,101231.84
2019-01-22T00:35:17.607Z,101226.37
2019-01-22T00:37:46.225Z,101233.13
2019-01-22T00:40:17.143Z,101229.77
2019-01-22T00:42:46.196Z,101224.20
2019-01-22T00:45:15.505Z,101224.25
2019-01-22T00:47:44.132Z,101217.73
2019-01-22T00:50:15.537Z,101221.52
2019-01-22T00:52:44.160Z,101219.39
2019-01-22T00:55:15.749Z,101219.29
2019-01-22T00:57:44.376Z,101216.29
2019-01-22T01:00:19.080Z,101220.97
2019-01-22T01:02:47.808Z,101217.27
2019-01-22T01:05:16.515Z,101211.37
2019-01-22T01:07:45.679Z,101213.61
2019-01-22T01:10:15.186Z,101215.94
2019-01-22T01:12:43.868Z,101210.03
2019-01-22T01:15:14.472Z,101209.52
2019-01-22T01:17:43.558Z,101207.57
2019-01-22T01:20:14.961Z,101209.52
2019-01-22T01:22:43.649Z,101201.11
2019-01-22T01:25:15.117Z,101200.33
2019-01-22T01:27:43.921Z,101195.58
2019-01-22T01:30:15.365Z,101194.52
2019-01-22T01:32:44.096Z,101192.52
2019-01-22T01:35:12.854Z,101193.95
2019-01-22T01:37:41.448Z,101191.23
2019-01-22T01:40:13.003Z,101188.73
2019-01-22T01:42:41.595Z,101178.95
2019-01-22T01:45:10.594Z,101188.50
2019-01-22T01:47:39.810Z,101173.95
2019-01-22T01:50:11.611Z,101172.28
2019-01-22T01:52:40.221Z,101165.80
2019-01-22T01:55:10.624Z,101168.98
2019-01-22T01:57:39.340Z,101164.81
2019-01-22T02:00:13.935Z,101163.14
2019-01-22T02:02:42.615Z,101162.19
2019-01-22T02:05:11.182Z,101160.39
2019-01-22T02:07:39.784Z,101163.95
2019-01-22T02:10:17.293Z,101153.73
2019-01-22T02:12:55.641Z,101149.94
2019-01-22T02:15:45.023Z,101142.65
2019-01-22T02:18:19.677Z,101142.84
2019-01-22T02:21:03.760Z,101143.01
2019-01-22T02:23:44.598Z,101130.81
2019-01-22T02:26:28.373Z,101128.85
2019-01-22T02:29:00.221Z,101119.55
2019-01-22T02:31:59.160Z,101111.34
2019-01-22T02:34:36.759Z,101118.45
2019-01-22T02:37:37.287Z,101110.14
2019-01-22T02:40:15.111Z,101105.41
2019-01-22T02:43:06.675Z,101104.87
2019-01-22T02:45:44.264Z,101099.08
2019-01-22T02:48:22.094Z,101103.45
2019-01-22T02:50:59.663Z,101095.14
2019-01-22T02:53:38.522Z,101091.44
2019-01-22T02:56:30.454Z,101089.58
2019-01-22T02:59:18.696Z,101085.28
2019-01-22T03:02:12.864Z,101080.50
2019-01-22T03:04:59.719Z,101078.61
2019-01-22T03:07:48.998Z,101070.20
2019-01-22T03:10:29.336Z,101070.88
2019-01-22T03:13:17.403Z,101073.55
2019-01-22T03:15:58.385Z,101060.11
2019-01-22T03:18:39.034Z,101059.73
2019-01-22T03:21:25.764Z,101053.60
2019-01-22T03:23:57.543Z,101048.75
2019-01-22T03:26:44.359Z,101054.61
2019-01-22T03:29:19.102Z,101048.55
2019-01-22T03:31:56.515Z,101051.23
2019-01-22T03:34:31.183Z,101048.00
2019-01-22T03:37:08.735Z,101048.33
2019-01-22T03:39:52.676Z,101041.80
2019-01-22T03:42:36.226Z,101039.52
2019-01-22T03:45:20.180Z,101042.47
2019-01-22T03:48:22.448Z,101042.34
2019-01-22T03:51:05.172Z,101030.59
2019-01-22T03:53:36.946Z,101032.64
2019-01-22T03:56:31.890Z,101035.93
2019-01-22T03:59:00.661Z,101038.02
2019-01-22T04:01:29.295Z,101035.62
2019-01-22T04:03:57.915Z,101030.48
2019-01-22T04:06:26.738Z,101026.98
2019-01-22T04:08:57.736Z,101026.91
2019-01-22T04:11:28.074Z,101021.37
2019-01-22T04:13:56.688Z,101024.09
2019-01-22T04:16:25.272Z,101019.56
2019-01-22T04:18:53.869Z,101018.23
2019-01-22T04:21:24.089Z,101015.11
2019-01-22T04:24:26.012Z,101014.97
2019-01-22T04:27:09.668Z,101012.94
2019-01-22T04:29:47.090Z,101005.23
2019-01-22T04:32:19.170Z,101004.07
2019-01-22T04:35:02.216Z,101001.60
2019-01-22T04:37:34.044Z,100998.92
2019-01-22T04:40:23.426Z,101000.69
2019-01-22T04:43:13.034Z,100996.29
2019-01-22T04:45:50.361Z,100992.77
2019-01-22T04:48:54.036Z,100994.07
2019-01-22T04:51:34.528Z,100987.73
2019-01-22T04:54:18.190Z,100989.73
2019-01-22T04:57:01.752Z,100985.81
2019-01-22T04:59:36.278Z,100980.27
2019-01-22T05:02:10.964Z,100981.44
2019-01-22T05:04:42.726Z,100976.06
2019-01-22T05:07:17.226Z,100981.73
2019-01-22T05:10:02.548Z,100979.95
2019-01-22T05:12:52.423Z,100976.00
2019-01-22T05:15:50.982Z,100975.50
2019-01-22T05:18:48.503Z,100970.57
2019-01-22T05:21:47.461Z,100964.27
2019-01-22T05:24:19.243Z,100968.86
2019-01-22T05:27:02.787Z,100969.86
2019-01-22T05:29:49.563Z,100970.97
2019-01-22T05:32:30.368Z,100976.84
2019-01-22T05:35:11.259Z,100971.81
2019-01-22T05:38:06.694Z,100970.39
2019-01-22T05:40:44.365Z,100966.23
2019-01-22T05:43:47.811Z,100968.98
2019-01-22T05:46:51.189Z,100959.85
2019-01-22T05:49:22.977Z,100963.31
2019-01-22T05:52:16.615Z,100963.13
2019-01-22T05:54:48.441Z,100965.30
2019-01-22T05:57:18.523Z,100965.87
2019-01-22T06:00:17.642Z,100955.27
2019-01-22T06:02:49.717Z,100955.78
2019-01-22T06:05:37.774Z,100957.44
2019-01-22T06:08:09.583Z,100957.38
2019-01-22T06:10:46.800Z,100956.03
2019-01-22T06:13:21.424Z,100960.02
2019-01-22T06:15:55.826Z,100949.14
2019-01-22T06:18:45.412Z,100947.81
2019-01-22T06:21:22.883Z,100952.81
2019-01-22T06:24:12.512Z,100953.30
2019-01-22T06:26:44.346Z,100946.09
2019-01-22T06:29:32.654Z,100951.25
2019-01-22T06:32:16.412Z,100944.80
2019-01-22T06:34:53.913Z,100945.78
2019-01-22T06:37:28.400Z,100947.81
2019-01-22T06:40:00.425Z,100941.25
2019-01-22T06:42:40.926Z,100946.20
2019-01-22T06:45:18.492Z,100942.00
2019-01-22T06:48:09.208Z,100949.66
2019-01-22T06:50:53.078Z,100947.55
2019-01-22T06:53:39.677Z,100938.63
2019-01-22T06:56:14.455Z,100939.41
2019-01-22T06:59:07.139Z,100932.16
2019-01-22T07:01:41.522Z,100935.44
2019-01-22T07:04:25.352Z,100941.02
2019-01-22T07:07:16.725Z,100943.98
2019-01-22T07:10:00.330Z,100939.93
2019-01-22T07:12:33.907Z,100943.62
2019-01-22T07:15:37.574Z,100944.28
2019-01-22T07:18:27.570Z,100943.44
2019-01-22T07:21:20.177Z,100941.53
2019-01-22T07:24:03.815Z,100943.44
2019-01-22T07:26:59.908Z,100946.23
2019-01-22T07:30:06.398Z,100947.23
2019-01-22T07:32:53.388Z,100939.92
2019-01-22T07:35:28.191Z,100940.03
2019-01-22T07:37:59.996Z,100934.58
2019-01-22T07:40:54.165Z,100937.77
2019-01-22T07:43:42.328Z,100934.43
2019-01-22T07:46:26.122Z,100930.74
2019-01-22T07:49:03.192Z,100930.16
2019-01-22T07:52:08.561Z,100937.58
2019-01-22T07:55:03.033Z,100931.64
2019-01-22T07:57:40.864Z,100932.59
2019-01-22T08:00:28.066Z,100930.92
2019-01-22T08:03:51.667Z,100930.05
2019-01-22T08:06:23.560Z,100922.77
2019-01-22T08:09:01.084Z,100925.19
2019-01-22T08:11:35.617Z,100926.29
2019-01-22T08:14:22.445Z,100930.74
2019-01-22T08:16:54.219Z,100919.27
2019-01-22T08:19:37.760Z,100920.91
2019-01-22T08:22:12.413Z,100929.79
2019-01-22T08:25:05.081Z,100925.64
2019-01-22T08:28:04.866Z,100926.19
2019-01-22T08:30:39.278Z,100922.80
2019-01-22T08:33:19.491Z,100919.69
2019-01-22T08:36:07.723Z,100916.45
2019-01-22T08:38:42.071Z,100909.77
2019-01-22T08:41:30.637Z,100908.22
2019-01-22T08:44:19.065Z,100912.85
2019-01-22T08:47:11.789Z,100904.81
2019-01-22T08:49:55.579Z,100906.27
2019-01-22T08:52:30.279Z,100908.06
2019-01-22T08:55:08.086Z,100907.91
2019-01-22T08:57:37.675Z,100909.31
2019-01-22T09:00:27.633Z,100904.86
2019-01-22T09:03:05.471Z,100899.65
2019-01-22T09:05:42.793Z,100897.33
2019-01-22T09:08:20.358Z,100895.16
2019-01-22T09:10:52.212Z,100889.78
2019-01-22T09:13:45.371Z,100889.98
2019-01-22T09:16:35.460Z,100885.39
2019-01-22T09:19:22.271Z,100886.15
2019-01-22T09:22:25.674Z,100884.05
2019-01-22T09:25:14.585Z,100883.02
2019-01-22T09:27:54.068Z,100880.80
2019-01-22T09:30:45.387Z,100881.52
2019-01-22T09:33:26.153Z,100877.09
2019-01-22T09:36:15.935Z,100884.56
2019-01-22T09:38:44.621Z,100880.02
2019-01-22T09:41:13.408Z,100877.59
2019-01-22T09:43:42.196Z,100869.84
2019-01-22T09:46:10.881Z,100870.87
2019-01-22T09:48:39.671Z,100869.12
2019-01-22T09:51:08.457Z,100870.05
2019-01-22T09:53:37.246Z,100864.68
2019-01-22T09:56:05.935Z,100868.38
2019-01-22T09:58:34.823Z,100874.89
2019-01-22T10:01:05.045Z,100867.05
2019-01-22T10:03:33.834Z,100869.62
2019-01-22T10:06:05.159Z,100863.83
2019-01-22T10:08:33.872Z,100869.41
2019-01-22T10:11:02.652Z,100867.39
2019-01-22T10:13:31.440Z,100861.38
2019-01-22T10:16:00.435Z,100862.28
2019-01-22T10:18:29.323Z,100861.06
2019-01-22T10:20:57.908Z,100851.36
2019-01-22T10:23:26.597Z,100856.16
2019-01-22T10:25:55.382Z,100846.45
2019-01-22T10:28:24.069Z,100845.09
2019-01-22T10:30:52.855Z,100851.27
2019-01-22T10:33:21.540Z,100835.38
2019-01-22T10:35:50.225Z,100835.16
2019-01-22T10:38:19.127Z,100777.30
2019-01-22T10:40:48.115Z,100769.86
2019-01-22T10:43:16.794Z,100768.89
2019-01-22T10:45:45.583Z,100745.26
2019-01-22T10:48:14.269Z,100799.61
2019-01-22T10:50:42.954Z,100797.70
2019-01-22T10:53:11.643Z,100725.65
2019-01-22T10:55:40.530Z,100709.05
2019-01-22T10:58:09.202Z,100717.86
2019-01-22T11:00:37.848Z,100693.83
2019-01-22T11:03:06.516Z,100738.23
2019-01-22T11:05:37.433Z,100765.83
2019-01-22T11:08:06.084Z,100684.59
2019-01-22T11:10:34.656Z,100665.92
2019-01-22T11:13:03.330Z,100677.87
2019-01-22T11:15:31.949Z,100679.52
2019-01-22T11:18:00.545Z,100725.53
2019-01-22T11:20:30.748Z,100716.49
2019-01-22T11:22:59.414Z,100713.52
2019-01-22T11:25:30.581Z,100719.75
2019-01-22T11:27:59.301Z,100744.43
2019-01-22T11:30:28.801Z,100756.17
2019-01-22T11:32:57.462Z,100717.05
2019-01-22T11:35:26.495Z,100714.73
2019-01-22T11:37:55.182Z,100719.61
2019-01-22T11:40:30.045Z,100722.64
2019-01-22T11:42:58.681Z,100731.44
2019-01-22T11:45:27.293Z,100726.80
2019-01-22T11:47:55.994Z,100729.87
2019-01-22T11:50:24.922Z,100728.56
2019-01-22T11:52:53.534Z,100722.76
2019-01-22T11:55:22.085Z,100714.75
2019-01-22T11:57:50.676Z,100709.56
2019-01-22T12:00:29.974Z,100715.86
2019-01-22T12:02:58.557Z,100710.92
2019-01-22T12:05:27.129Z,100708.89
2019-01-22T12:07:55.726Z,100709.17
2019-01-22T12:10:24.299Z,100713.11
2019-01-22T12:12:52.979Z,100710.18
2019-01-22T12:15:21.890Z,100708.02
2019-01-22T12:17:50.528Z,100701.83
2019-01-22T12:20:25.021Z,100695.31
2019-01-22T12:22:53.605Z,100698.95
2019-01-22T12:25:22.175Z,100695.20
2019-01-22T12:27:50.878Z,100692.81
2019-01-22T12:30:31.342Z,100683.69
2019-01-22T12:33:00.131Z,100672.91
2019-01-22T12:35:29.227Z,100663.56
2019-01-22T12:37:57.910Z,100668.23
2019-01-22T12:40:28.339Z,100660.95
2019-01-22T12:42:57.024Z,100661.48
2019-01-22T12:45:28.680Z,100646.97
2019-01-22T12:47:57.469Z,100655.95
2019-01-22T12:50:27.279Z,100647.36
2019-01-22T12:52:56.171Z,100638.27
2019-01-22T12:55:24.854Z,100635.38
2019-01-22T12:57:53.643Z,100633.09
2019-01-22T13:00:24.864Z,100620.36
2019-01-22T13:02:53.880Z,100618.36
2019-01-22T13:05:37.454Z,100616.20
2019-01-22T13:08:06.511Z,100617.31
2019-01-22T13:10:35.298Z,100612.41
2019-01-22T13:13:04.393Z,100598.42
2019-01-22T13:15:33.080Z,100596.31
2019-01-22T13:18:01.749Z,100596.94
2019-01-22T13:20:30.348Z,100581.00
2019-01-22T13:22:59.137Z,100581.41
2019-01-22T13:25:27.724Z,100574.55
2019-01-22T13:27:56.345Z,100578.06
2019-01-22T13:30:29.306Z,100571.23
2019-01-22T13:32:58.439Z,100569.16
2019-01-22T13:35:27.013Z,100569.55
2019-01-22T13:37:55.726Z,100565.69
2019-01-22T13:40:24.298Z,100556.70
2019-01-22T13:42:52.875Z,100555.23
2019-01-22T13:45:27.003Z,100551.55
2019-01-22T13:47:56.847Z,100551.25
2019-01-22T13:50:25.533Z,100549.14
2019-01-22T13:52:54.163Z,100540.66
2019-01-22T13:55:25.796Z,100536.45
2019-01-22T13:57:54.396Z,100538.72
2019-01-22T14:01:02.340Z,100530.03
2019-01-22T14:03:30.956Z,100522.88
2019-01-22T14:05:59.506Z,100515.28
2019-01-22T14:08:28.158Z,100525.47
2019-01-22T14:10:56.731Z,100520.56
2019-01-22T14:13:25.293Z,100519.03
2019-01-22T14:15:53.825Z,100513.19
2019-01-22T14:18:22.520Z,100512.62
2019-01-22T14:20:51.103Z,100509.66
2019-01-22T14:23:19.690Z,100510.81
2019-01-22T14:25:48.297Z,100506.52
2019-01-22T14:28:17.233Z,100509.88
2019-01-22T14:30:46.232Z,100507.57
2019-01-22T14:33:14.880Z,100502.00
2019-01-22T14:35:43.447Z,100504.14
2019-01-22T14:38:12.094Z,100502.79
2019-01-22T14:40:40.603Z,100501.19
2019-01-22T14:43:09.180Z,100493.98
2019-01-22T14:45:37.872Z,100491.66
2019-01-22T14:48:07.435Z,100494.00
2019-01-22T14:50:36.076Z,100486.95
2019-01-22T14:53:04.698Z,100481.77
2019-01-22T14:55:33.338Z,100474.45
2019-01-22T14:58:13.023Z,100476.98
2019-01-22T15:00:41.608Z,100477.97
2019-01-22T15:03:30.232Z,100480.50
2019-01-22T15:05:58.830Z,100473.16
2019-01-22T15:08:27.378Z,100472.19
2019-01-22T15:10:56.117Z,100467.13
2019-01-22T15:13:24.777Z,100462.62
2019-01-22T15:15:53.516Z,100456.91
2019-01-22T15:18:22.061Z,100452.78
2019-01-22T15:20:50.659Z,100443.43
2019-01-22T15:23:19.254Z,100441.06
2019-01-22T15:25:49.388Z,100433.34
2019-01-22T15:28:18.067Z,100436.07
2019-01-22T15:30:46.802Z,100433.45
2019-01-22T15:33:15.681Z,100437.17
2019-01-22T15:35:48.561Z,100435.23
2019-01-22T15:38:21.046Z,100430.15
2019-01-22T15:40:49.664Z,100437.19
2019-01-22T15:43:18.716Z,100431.80
2019-01-22T15:45:47.338Z,100436.58
2019-01-22T15:48:15.968Z,100432.33
2019-01-22T15:50:46.252Z,100432.92
2019-01-22T15:53:14.913Z,100426.44
2019-01-22T15:55:48.100Z,100432.41
2019-01-22T15:58:16.363Z,100434.05
2019-01-22T16:00:46.986Z,100434.63
2019-01-22T16:03:15.927Z,100427.84
2019-01-22T16:05:44.480Z,100432.77
2019-01-22T16:08:13.207Z,100429.72
2019-01-22T16:10:41.760Z,100423.50
2019-01-22T16:13:10.399Z,100419.95
2019-01-22T16:15:40.742Z,100421.77
2019-01-22T16:18:09.305Z,100411.52
2019-01-22T16:20:38.309Z,100415.97
2019-01-22T16:23:06.978Z,100407.48
2019-01-22T16:25:36.390Z,100398.95
2019-01-22T16:28:05.012Z,100405.14
2019-01-22T16:30:33.582Z,100394.82
2019-01-22T16:33:02.235Z,100393.72
2019-01-22T16:35:30.865Z,100381.01
2019-01-22T16:37:59.592Z,100380.12
2019-01-22T16:40:28.172Z,100382.66
2019-01-22T16:42:56.839Z,100382.41
2019-01-22T16:45:31.141Z,100378.32
2019-01-22T16:48:01.161Z,100378.63
2019-01-22T16:50:32.044Z,100384.27
2019-01-22T16:53:02.767Z,100378.63
2019-01-22T16:55:37.473Z,100378.73
2019-01-22T16:58:06.262Z,100378.58
2019-01-22T17:00:37.007Z,100374.10
2019-01-22T17:03:07.787Z,100373.54
2019-01-22T17:05:36.586Z,100375.20
2019-01-22T17:08:05.528Z,100370.09
2019-01-22T17:10:34.205Z,100372.45
2019-01-22T17:13:02.968Z,100370.97
2019-01-22T17:15:31.617Z,100375.09
2019-01-22T17:18:00.970Z,100372.00
2019-01-22T17:20:32.142Z,100362.08
2019-01-22T17:23:02.243Z,100367.62
2019-01-22T17:25:31.382Z,100366.75
2019-01-22T17:28:01.944Z,100365.52
2019-01-22T17:30:31.131Z,100362.39
2019-01-22T17:33:07.275Z,100367.30
2019-01-22T17:35:37.593Z,100368.62
2019-01-22T17:38:06.263Z,100360.54
2019-01-22T17:40:34.943Z,100364.42
2019-01-22T17:43:03.740Z,100358.20
2019-01-22T17:45:32.713Z,100354.15
2019-01-22T17:48:02.594Z,100361.22
2019-01-22T17:50:31.755Z,100354.69
2019-01-22T17:53:00.425Z,100351.66
2019-01-22T17:55:29.126Z,100352.56
2019-01-22T17:57:57.798Z,100340.93
2019-01-22T18:00:31.848Z,100340.31
2019-01-22T18:03:00.681Z,100339.77
2019-01-22T18:05:29.871Z,100335.25
2019-01-22T18:07:58.574Z,100342.97
2019-01-22T18:10:30.524Z,100279.81
2019-01-22T18:12:59.153Z,100335.78
2019-01-22T18:15:27.792Z,100330.45
2019-01-22T18:17:56.442Z,100334.09
2019-01-22T18:20:28.110Z,100330.45
2019-01-22T18:22:56.802Z,100332.14
2019-01-22T18:25:25.475Z,100328.08
2019-01-22T18:27:54.243Z,100325.91
2019-01-22T18:30:24.706Z,100324.44
2019-01-22T18:32:53.585Z,100325.08
2019-01-22T18:35:37.824Z,100322.88
2019-01-22T18:38:02.807Z,100321.50
2019-01-22T18:40:31.573Z,100318.23
2019-01-22T18:43:00.643Z,100319.85
2019-01-22T18:45:29.245Z,100324.13
2019-01-22T18:47:58.247Z,100314.52
2019-01-22T18:50:27.868Z,100316.90
2019-01-22T18:52:57.327Z,100313.77
2019-01-22T18:55:27.558Z,100311.25
2019-01-22T18:57:58.755Z,100313.03
2019-01-22T19:00:27.322Z,100305.09
2019-01-22T19:02:56.039Z,100308.32
2019-01-22T19:05:24.658Z,100300.54
2019-01-22T19:07:53.377Z,100308.79
2019-01-22T19:10:27.592Z,100299.86
2019-01-22T19:12:56.219Z,100298.99
2019-01-22T19:15:24.963Z,100304.53
2019-01-22T19:17:54.301Z,100298.58
2019-01-22T19:20:24.305Z,100294.83
2019-01-22T19:22:53.077Z,100296.75
2019-01-22T19:25:28.523Z,100296.34
2019-01-22T19:27:57.259Z,100288.52
2019-01-22T19:30:28.669Z,100284.75
2019-01-22T19:32:59.007Z,100282.75
2019-01-22T19:35:27.763Z,100286.02
2019-01-22T19:37:56.880Z,100284.73
2019-01-22T19:40:25.870Z,100279.24
2019-01-22T19:42:54.927Z,100280.30
2019-01-22T19:45:28.069Z,100274.22
2019-01-22T19:47:58.086Z,100271.30
2019-01-22T19:50:26.902Z,100267.74
2019-01-22T19:52:56.546Z,100269.98
2019-01-22T19:55:25.365Z,100268.44
2019-01-22T19:57:54.222Z,100261.43
2019-01-22T20:00:28.577Z,100264.65
2019-01-22T20:02:58.902Z,100255.58
2019-01-22T20:05:27.695Z,100256.97
2019-01-22T20:07:56.434Z,100255.76
2019-01-22T20:10:25.100Z,100251.53
2019-01-22T20:12:53.878Z,100248.62
2019-01-22T20:15:24.319Z,100239.88
2019-01-22T20:17:53.014Z,100242.40
2019-01-22T20:20:21.785Z,100240.14
2019-01-22T20:22:50.520Z,100233.45
2019-01-22T20:25:19.786Z,100235.67
2019-01-22T20:27:49.361Z,100231.40
2019-01-22T20:30:30.105Z,100232.23
2019-01-22T20:33:00.910Z,100233.77
2019-01-22T20:35:29.738Z,100235.55
2019-01-22T20:37:59.584Z,100229.64
2019-01-22T20:40:28.219Z,100224.57
2019-01-22T20:42:56.824Z,100217.43
2019-01-22T20:45:28.099Z,100217.58
2019-01-22T20:47:56.722Z,100216.06
2019-01-22T20:50:25.366Z,100209.18
2019-01-22T20:52:54.009Z,100207.28
2019-01-22T20:55:24.813Z,100208.72
2019-01-22T20:57:55.030Z,100207.82
2019-01-22T21:00:25.108Z,100210.70
2019-01-22T21:02:54.882Z,100205.25
2019-01-22T21:05:25.777Z,100205.32
2019-01-22T21:07:54.429Z,100212.28
2019-01-22T21:10:29.501Z,100213.36
2019-01-22T21:12:58.196Z,100208.72
2019-01-22T21:15:26.893Z,100210.95
2019-01-22T21:17:55.544Z,100213.89
2019-01-22T21:20:24.081Z,100208.64
2019-01-22T21:22:53.310Z,100210.02
2019-01-22T21:25:23.818Z,100209.52
2019-01-22T21:27:52.648Z,100212.69
2019-01-22T21:30:24.370Z,100207.02
2019-01-22T21:32:53.512Z,100205.73
2019-01-22T21:35:22.400Z,100213.02
2019-01-22T21:37:50.985Z,100206.83
2019-01-22T21:40:19.940Z,100199.05
2019-01-22T21:42:48.765Z,100204.67
2019-01-22T21:45:22.812Z,100201.36
2019-01-22T21:47:51.537Z,100201.74
2019-01-22T21:50:20.414Z,100193.91
2019-01-22T21:52:49.019Z,100196.91
2019-01-22T21:55:19.803Z,100193.45
2019-01-22T21:57:48.536Z,100190.48
2019-01-22T22:00:22.677Z,100189.56
2019-01-22T22:02:51.408Z,100184.59
2019-01-22T22:05:22.409Z,100189.56
2019-01-22T22:07:51.115Z,100194.03
2019-01-22T22:10:22.056Z,100184.30
2019-01-22T22:12:50.978Z,100184.09
2019-01-22T22:15:22.530Z,100182.95
2019-01-22T22:17:52.932Z,100183.08
2019-01-22T22:20:21.460Z,100184.16
2019-01-22T22:22:50.089Z,100184.75
2019-01-22T22:25:21.884Z,100187.52
2019-01-22T22:27:50.466Z,100184.61
2019-01-22T22:30:24.878Z,100191.12
2019-01-22T22:32:53.852Z,100185.77
2019-01-22T22:35:23.552Z,100188.05
2019-01-22T22:37:52.234Z,100180.22
2019-01-22T22:40:22.628Z,100177.14
2019-01-22T22:42:51.584Z,100175.30
2019-01-22T22:45:22.163Z,100173.21
2019-01-22T22:47:51.162Z,100171.61
2019-01-22T22:50:25.370Z,100172.01
2019-01-22T22:52:54.017Z,100181.36
2019-01-22T22:55:24.646Z,100176.25
2019-01-22T22:57:53.536Z,100172.44
2019-01-22T23:00:35.415Z,100173.98
2019-01-22T23:03:05.471Z,100176.77
2019-01-22T23:05:34.777Z,100183.19
2019-01-22T23:08:03.366Z,100177.95
2019-01-22T23:10:32.087Z,100177.61
2019-01-22T23:13:02.668Z,100168.05
2019-01-22T23:15:31.212Z,100174.65
2019-01-22T23:18:00.120Z,100166.00
2019-01-22T23:20:28.717Z,100164.14
2019-01-22T23:22:57.281Z,100164.14
2019-01-22T23:25:26.182Z,100166.51
2019-01-22T23:27:54.777Z,100160.13
2019-01-22T23:30:23.873Z,100158.80
2019-01-22T23:32:52.405Z,100151.83
2019-01-22T23:35:21.125Z,100150.77
2019-01-22T23:37:49.702Z,100152.54
2019-01-22T23:40:18.813Z,100149.23
2019-01-22T23:42:49.187Z,100146.98
2019-01-22T23:45:17.812Z,100144.20
2019-01-22T23:47:46.350Z,100147.70
2019-01-22T23:50:16.252Z,100135.58
2019-01-22T23:52:44.789Z,100133.11
2019-01-22T23:55:13.717Z,100131.69
2019-01-22T23:57:42.274Z,100125.31
